sensor_id;sensor_type;location;lat;lon;timestamp;pressure;altitude;pressure_sealevel;temperature
19282;BMP180;9774;52.034;5.342;2023-07-20T00:01:11;101298.00;;;23.40
19282;BMP180;9774;52.034;5.342;2023-07-20T00:03:39;101296.00;;;23.40
19282;BMP180;9774;52.034;5.342;2023-07-20T00:06:07;101300.00;;;23.40
19282;BMP180;9774;52.034;5.342;2023-07-20T00:08:34;101296.00;;;23.40
19282;BMP180;9774;52.034;5.342;2023-07-20T00:11:03;101294.00;;;23.30
19282;BMP180;9774;52.034;5.342;2023-07-20T00:13:30;101291.00;;;23.30
19282;BMP180;9774;52.034;5.342;2023-07-20T00:15:57;101296.00;;;23.30
19282;BMP180;9774;52.034;5.342;2023-07-20T00:18:24;101296.00;;;23.30
19282;BMP180;9774;52.034;5.342;2023-07-20T00:20:52;101298.00;;;23.30
19282;BMP180;9774;52.034;5.342;2023-07-20T00:23:19;101289.00;;;23.30
19282;BMP180;9774;52.034;5.342;2023-07-20T00:25:48;101297.00;;;23.30
19282;BMP180;9774;52.034;5.342;2023-07-20T00:28:17;101300.00;;;23.20
19282;BMP180;9774;52.034;5.342;2023-07-20T00:30:44;101297.00;;;23.20
19282;BMP180;9774;52.034;5.342;2023-07-20T00:33:12;101302.00;;;23.20
19282;BMP180;9774;52.034;5.342;2023-07-20T00:35:40;101298.00;;;23.20
19282;BMP180;9774;52.034;5.342;2023-07-20T00:38:07;101298.00;;;23.10
19282;BMP180;9774;52.034;5.342;2023-07-20T00:40:36;101305.00;;;23.10
19282;BMP180;9774;52.034;5.342;2023-07-20T00:43:04;101289.00;;;23.10
19282;BMP180;9774;52.034;5.342;2023-07-20T00:45:33;101291.00;;;23.00
19282;BMP180;9774;52.034;5.342;2023-07-20T00:48:02;101296.00;;;23.00
19282;BMP180;9774;52.034;5.342;2023-07-20T00:50:30;101288.00;;;23.00
19282;BMP180;9774;52.034;5.342;2023-07-20T00:52:58;101297.00;;;22.90
19282;BMP180;9774;52.034;5.342;2023-07-20T00:55:27;101306.00;;;22.90
19282;BMP180;9774;52.034;5.342;2023-07-20T00:57:55;101302.00;;;22.90
19282;BMP180;9774;52.034;5.342;2023-07-20T01:00:22;101305.00;;;22.90
19282;BMP180;9774;52.034;5.342;2023-07-20T01:02:52;101296.00;;;22.80
19282;BMP180;9774;52.034;5.342;2023-07-20T01:05:20;101306.00;;;22.80
19282;BMP180;9774;52.034;5.342;2023-07-20T01:07:55;101300.00;;;22.70
19282;BMP180;9774;52.034;5.342;2023-07-20T01:10:29;101299.00;;;22.70
19282;BMP180;9774;52.034;5.342;2023-07-20T01:12:58;101300.00;;;22.70
19282;BMP180;9774;52.034;5.342;2023-07-20T01:15:26;101306.00;;;22.70
19282;BMP180;9774;52.034;5.342;2023-07-20T01:17:54;101305.00;;;22.60
19282;BMP180;9774;52.034;5.342;2023-07-20T01:20:22;101302.00;;;22.60
19282;BMP180;9774;52.034;5.342;2023-07-20T01:26:02;101303.00;;;22.50
19282;BMP180;9774;52.034;5.342;2023-07-20T01:28:57;101304.00;;;22.40
19282;BMP180;9774;52.034;5.342;2023-07-20T01:31:37;101306.00;;;22.40
19282;BMP180;9774;52.034;5.342;2023-07-20T01:34:06;101306.00;;;22.40
19282;BMP180;9774;52.034;5.342;2023-07-20T01:36:37;101298.00;;;22.40
19282;BMP180;9774;52.034;5.342;2023-07-20T01:39:05;101298.00;;;22.40
19282;BMP180;9774;52.034;5.342;2023-07-20T01:41:33;101293.00;;;22.30
19282;BMP180;9774;52.034;5.342;2023-07-20T01:44:03;101297.00;;;22.30
19282;BMP180;9774;52.034;5.342;2023-07-20T01:46:30;101300.00;;;22.20
19282;BMP180;9774;52.034;5.342;2023-07-20T01:48:59;101307.00;;;22.20
19282;BMP180;9774;52.034;5.342;2023-07-20T01:51:26;101316.00;;;22.10
19282;BMP180;9774;52.034;5.342;2023-07-20T01:53:53;101316.00;;;22.10
19282;BMP180;9774;52.034;5.342;2023-07-20T01:56:20;101310.00;;;22.00
19282;BMP180;9774;52.034;5.342;2023-07-20T01:58:48;101316.00;;;22.00
19282;BMP180;9774;52.034;5.342;2023-07-20T02:01:15;101314.00;;;22.00
19282;BMP180;9774;52.034;5.342;2023-07-20T02:03:42;101308.00;;;21.90
19282;BMP180;9774;52.034;5.342;2023-07-20T02:06:11;101314.00;;;21.90
19282;BMP180;9774;52.034;5.342;2023-07-20T02:08:38;101309.00;;;21.90
19282;BMP180;9774;52.034;5.342;2023-07-20T02:11:05;101305.00;;;21.80
19282;BMP180;9774;52.034;5.342;2023-07-20T02:13:32;101313.00;;;21.80
19282;BMP180;9774;52.034;5.342;2023-07-20T02:16:00;101313.00;;;21.80
19282;BMP180;9774;52.034;5.342;2023-07-20T02:18:27;101307.00;;;21.70
19282;BMP180;9774;52.034;5.342;2023-07-20T02:20:54;101311.00;;;21.70
19282;BMP180;9774;52.034;5.342;2023-07-20T02:23:23;101316.00;;;21.60
19282;BMP180;9774;52.034;5.342;2023-07-20T02:25:50;101312.00;;;21.60
19282;BMP180;9774;52.034;5.342;2023-07-20T02:28:17;101306.00;;;21.60
19282;BMP180;9774;52.034;5.342;2023-07-20T02:30:45;101307.00;;;21.60
19282;BMP180;9774;52.034;5.342;2023-07-20T02:33:12;101310.00;;;21.50
19282;BMP180;9774;52.034;5.342;2023-07-20T02:35:40;101310.00;;;21.50
19282;BMP180;9774;52.034;5.342;2023-07-20T02:38:08;101314.00;;;21.50
19282;BMP180;9774;52.034;5.342;2023-07-20T02:40:36;101316.00;;;21.40
19282;BMP180;9774;52.034;5.342;2023-07-20T02:43:03;101313.00;;;21.40
19282;BMP180;9774;52.034;5.342;2023-07-20T02:45:31;101316.00;;;21.40
19282;BMP180;9774;52.034;5.342;2023-07-20T02:47:58;101319.00;;;21.40
19282;BMP180;9774;52.034;5.342;2023-07-20T02:50:25;101324.00;;;21.30
19282;BMP180;9774;52.034;5.342;2023-07-20T02:52:52;101327.00;;;21.30
19282;BMP180;9774;52.034;5.342;2023-07-20T02:55:20;101325.00;;;21.30
19282;BMP180;9774;52.034;5.342;2023-07-20T02:57:48;101329.00;;;21.20
19282;BMP180;9774;52.034;5.342;2023-07-20T03:00:17;101332.00;;;21.20
19282;BMP180;9774;52.034;5.342;2023-07-20T03:02:45;101331.00;;;21.20
19282;BMP180;9774;52.034;5.342;2023-07-20T03:05:13;101333.00;;;21.20
19282;BMP180;9774;52.034;5.342;2023-07-20T03:07:41;101332.00;;;21.20
19282;BMP180;9774;52.034;5.342;2023-07-20T03:10:10;101332.00;;;21.10
19282;BMP180;9774;52.034;5.342;2023-07-20T03:12:37;101332.00;;;21.10
19282;BMP180;9774;52.034;5.342;2023-07-20T03:15:07;101342.00;;;21.10
19282;BMP180;9774;52.034;5.342;2023-07-20T03:17:34;101338.00;;;21.10
19282;BMP180;9774;52.034;5.342;2023-07-20T03:20:02;101344.00;;;21.10
19282;BMP180;9774;52.034;5.342;2023-07-20T03:22:29;101347.00;;;21.00
19282;BMP180;9774;52.034;5.342;2023-07-20T03:24:56;101344.00;;;21.00
19282;BMP180;9774;52.034;5.342;2023-07-20T03:27:24;101346.00;;;21.00
19282;BMP180;9774;52.034;5.342;2023-07-20T03:29:51;101346.00;;;20.90
19282;BMP180;9774;52.034;5.342;2023-07-20T03:32:20;101345.00;;;20.90
19282;BMP180;9774;52.034;5.342;2023-07-20T03:34:47;101358.00;;;20.90
19282;BMP180;9774;52.034;5.342;2023-07-20T03:37:14;101351.00;;;20.90
19282;BMP180;9774;52.034;5.342;2023-07-20T03:39:42;101357.00;;;20.90
19282;BMP180;9774;52.034;5.342;2023-07-20T03:42:09;101352.00;;;20.80
19282;BMP180;9774;52.034;5.342;2023-07-20T03:44:36;101351.00;;;20.80
19282;BMP180;9774;52.034;5.342;2023-07-20T03:47:05;101350.00;;;20.80
19282;BMP180;9774;52.034;5.342;2023-07-20T03:49:34;101347.00;;;20.80
19282;BMP180;9774;52.034;5.342;2023-07-20T03:52:01;101356.00;;;20.80
19282;BMP180;9774;52.034;5.342;2023-07-20T03:54:29;101357.00;;;20.70
19282;BMP180;9774;52.034;5.342;2023-07-20T03:56:56;101357.00;;;20.70
19282;BMP180;9774;52.034;5.342;2023-07-20T03:59:24;101359.00;;;20.70
19282;BMP180;9774;52.034;5.342;2023-07-20T04:01:51;101351.00;;;20.70
19282;BMP180;9774;52.034;5.342;2023-07-20T04:04:19;101351.00;;;20.70
19282;BMP180;9774;52.034;5.342;2023-07-20T04:06:47;101362.00;;;20.70
19282;BMP180;9774;52.034;5.342;2023-07-20T04:09:15;101361.00;;;20.70
19282;BMP180;9774;52.034;5.342;2023-07-20T04:11:42;101363.00;;;20.70
19282;BMP180;9774;52.034;5.342;2023-07-20T04:14:09;101370.00;;;20.70
19282;BMP180;9774;52.034;5.342;2023-07-20T04:16:36;101370.00;;;20.70
19282;BMP180;9774;52.034;5.342;2023-07-20T04:19:04;101370.00;;;20.70
19282;BMP180;9774;52.034;5.342;2023-07-20T04:21:31;101377.00;;;20.70
19282;BMP180;9774;52.034;5.342;2023-07-20T04:24:00;101372.00;;;20.70
19282;BMP180;9774;52.034;5.342;2023-07-20T04:26:27;101372.00;;;20.70
19282;BMP180;9774;52.034;5.342;2023-07-20T04:28:54;101377.00;;;20.70
19282;BMP180;9774;52.034;5.342;2023-07-20T04:31:22;101380.00;;;20.70
19282;BMP180;9774;52.034;5.342;2023-07-20T04:33:49;101375.00;;;20.80
19282;BMP180;9774;52.034;5.342;2023-07-20T04:36:16;101386.00;;;20.80
19282;BMP180;9774;52.034;5.342;2023-07-20T04:38:45;101381.00;;;20.80
19282;BMP180;9774;52.034;5.342;2023-07-20T04:41:14;101380.00;;;20.80
19282;BMP180;9774;52.034;5.342;2023-07-20T04:43:44;101381.00;;;20.80
19282;BMP180;9774;52.034;5.342;2023-07-20T04:46:12;101383.00;;;20.80
19282;BMP180;9774;52.034;5.342;2023-07-20T04:48:39;101368.00;;;20.80
19282;BMP180;9774;52.034;5.342;2023-07-20T04:51:06;101382.00;;;20.80
19282;BMP180;9774;52.034;5.342;2023-07-20T04:53:34;101372.00;;;20.90
19282;BMP180;9774;52.034;5.342;2023-07-20T04:56:01;101383.00;;;20.90
19282;BMP180;9774;52.034;5.342;2023-07-20T04:58:29;101384.00;;;20.90
19282;BMP180;9774;52.034;5.342;2023-07-20T05:00:57;101383.00;;;20.90
19282;BMP180;9774;52.034;5.342;2023-07-20T05:03:24;101383.00;;;20.90
19282;BMP180;9774;52.034;5.342;2023-07-20T05:05:51;101388.00;;;20.90
19282;BMP180;9774;52.034;5.342;2023-07-20T05:08:18;101390.00;;;20.90
19282;BMP180;9774;52.034;5.342;2023-07-20T05:10:48;101385.00;;;21.00
19282;BMP180;9774;52.034;5.342;2023-07-20T05:13:16;101392.00;;;21.00
19282;BMP180;9774;52.034;5.342;2023-07-20T05:15:44;101390.00;;;21.00
19282;BMP180;9774;52.034;5.342;2023-07-20T05:18:11;101387.00;;;21.10
19282;BMP180;9774;52.034;5.342;2023-07-20T05:20:39;101387.00;;;21.20
19282;BMP180;9774;52.034;5.342;2023-07-20T05:23:06;101397.00;;;21.20
19282;BMP180;9774;52.034;5.342;2023-07-20T05:25:33;101391.00;;;21.30
19282;BMP180;9774;52.034;5.342;2023-07-20T05:28:01;101395.00;;;21.30
19282;BMP180;9774;52.034;5.342;2023-07-20T05:30:28;101391.00;;;21.30
19282;BMP180;9774;52.034;5.342;2023-07-20T05:32:57;101387.00;;;21.40
19282;BMP180;9774;52.034;5.342;2023-07-20T05:35:25;101394.00;;;21.40
19282;BMP180;9774;52.034;5.342;2023-07-20T05:37:52;101396.00;;;21.50
19282;BMP180;9774;52.034;5.342;2023-07-20T05:40:20;101393.00;;;21.50
19282;BMP180;9774;52.034;5.342;2023-07-20T05:42:47;101395.00;;;21.50
19282;BMP180;9774;52.034;5.342;2023-07-20T05:45:18;101392.00;;;21.60
19282;BMP180;9774;52.034;5.342;2023-07-20T05:47:47;101389.00;;;21.70
19282;BMP180;9774;52.034;5.342;2023-07-20T05:50:15;101384.00;;;21.70
19282;BMP180;9774;52.034;5.342;2023-07-20T05:52:43;101381.00;;;21.80
19282;BMP180;9774;52.034;5.342;2023-07-20T05:55:10;101383.00;;;21.80
19282;BMP180;9774;52.034;5.342;2023-07-20T05:57:37;101391.00;;;21.90
19282;BMP180;9774;52.034;5.342;2023-07-20T06:00:09;101386.00;;;21.90
19282;BMP180;9774;52.034;5.342;2023-07-20T06:02:38;101391.00;;;22.00
19282;BMP180;9774;52.034;5.342;2023-07-20T06:05:06;101396.00;;;22.00
19282;BMP180;9774;52.034;5.342;2023-07-20T06:07:36;101400.00;;;22.00
19282;BMP180;9774;52.034;5.342;2023-07-20T06:10:05;101399.00;;;22.10
19282;BMP180;9774;52.034;5.342;2023-07-20T06:12:32;101396.00;;;22.20
19282;BMP180;9774;52.034;5.342;2023-07-20T06:15:02;101402.00;;;22.20
19282;BMP180;9774;52.034;5.342;2023-07-20T06:17:30;101404.00;;;22.30
19282;BMP180;9774;52.034;5.342;2023-07-20T06:19:58;101397.00;;;22.40
19282;BMP180;9774;52.034;5.342;2023-07-20T06:22:25;101399.00;;;22.40
19282;BMP180;9774;52.034;5.342;2023-07-20T06:24:53;101410.00;;;22.50
19282;BMP180;9774;52.034;5.342;2023-07-20T06:27:21;101401.00;;;22.50
19282;BMP180;9774;52.034;5.342;2023-07-20T06:29:48;101408.00;;;22.60
19282;BMP180;9774;52.034;5.342;2023-07-20T06:32:15;101409.00;;;22.70
19282;BMP180;9774;52.034;5.342;2023-07-20T06:34:42;101413.00;;;22.70
19282;BMP180;9774;52.034;5.342;2023-07-20T06:37:10;101415.00;;;22.80
19282;BMP180;9774;52.034;5.342;2023-07-20T06:39:37;101423.00;;;22.80
19282;BMP180;9774;52.034;5.342;2023-07-20T06:42:06;101414.00;;;22.90
19282;BMP180;9774;52.034;5.342;2023-07-20T06:44:34;101424.00;;;23.00
19282;BMP180;9774;52.034;5.342;2023-07-20T06:47:01;101417.00;;;23.00
19282;BMP180;9774;52.034;5.342;2023-07-20T06:49:29;101423.00;;;23.10
19282;BMP180;9774;52.034;5.342;2023-07-20T06:51:56;101428.00;;;23.20
19282;BMP180;9774;52.034;5.342;2023-07-20T06:54:23;101428.00;;;23.20
19282;BMP180;9774;52.034;5.342;2023-07-20T06:56:51;101426.00;;;23.30
19282;BMP180;9774;52.034;5.342;2023-07-20T06:59:19;101427.00;;;23.40
19282;BMP180;9774;52.034;5.342;2023-07-20T07:01:47;101424.00;;;23.40
19282;BMP180;9774;52.034;5.342;2023-07-20T07:04:14;101425.00;;;23.50
19282;BMP180;9774;52.034;5.342;2023-07-20T07:06:42;101428.00;;;23.50
19282;BMP180;9774;52.034;5.342;2023-07-20T07:09:09;101420.00;;;23.60
19282;BMP180;9774;52.034;5.342;2023-07-20T07:11:36;101421.00;;;23.60
19282;BMP180;9774;52.034;5.342;2023-07-20T07:14:03;101431.00;;;23.70
19282;BMP180;9774;52.034;5.342;2023-07-20T07:16:32;101428.00;;;23.80
19282;BMP180;9774;52.034;5.342;2023-07-20T07:18:59;101429.00;;;23.80
19282;BMP180;9774;52.034;5.342;2023-07-20T07:21:26;101432.00;;;23.90
19282;BMP180;9774;52.034;5.342;2023-07-20T07:23:54;101429.00;;;24.00
19282;BMP180;9774;52.034;5.342;2023-07-20T07:26:23;101432.00;;;24.00
19282;BMP180;9774;52.034;5.342;2023-07-20T07:28:50;101432.00;;;24.20
19282;BMP180;9774;52.034;5.342;2023-07-20T07:31:18;101438.00;;;24.30
19282;BMP180;9774;52.034;5.342;2023-07-20T07:33:47;101428.00;;;24.40
19282;BMP180;9774;52.034;5.342;2023-07-20T07:36:14;101437.00;;;24.50
19282;BMP180;9774;52.034;5.342;2023-07-20T07:38:41;101437.00;;;24.50
19282;BMP180;9774;52.034;5.342;2023-07-20T07:41:09;101437.00;;;24.50
19282;BMP180;9774;52.034;5.342;2023-07-20T07:43:36;101440.00;;;24.50
19282;BMP180;9774;52.034;5.342;2023-07-20T07:46:04;101443.00;;;24.50
19282;BMP180;9774;52.034;5.342;2023-07-20T07:48:31;101440.00;;;24.60
19282;BMP180;9774;52.034;5.342;2023-07-20T07:51:00;101441.00;;;24.60
19282;BMP180;9774;52.034;5.342;2023-07-20T07:53:27;101441.00;;;24.70
19282;BMP180;9774;52.034;5.342;2023-07-20T07:55:54;101438.00;;;24.80
19282;BMP180;9774;52.034;5.342;2023-07-20T07:58:22;101439.00;;;24.90
19282;BMP180;9774;52.034;5.342;2023-07-20T08:00:49;101439.00;;;25.00
19282;BMP180;9774;52.034;5.342;2023-07-20T08:03:16;101443.00;;;25.10
19282;BMP180;9774;52.034;5.342;2023-07-20T08:05:44;101433.00;;;25.20
19282;BMP180;9774;52.034;5.342;2023-07-20T08:08:13;101424.00;;;25.20
19282;BMP180;9774;52.034;5.342;2023-07-20T08:10:40;101435.00;;;25.40
19282;BMP180;9774;52.034;5.342;2023-07-20T08:13:07;101434.00;;;25.50
19282;BMP180;9774;52.034;5.342;2023-07-20T08:15:35;101437.00;;;25.50
19282;BMP180;9774;52.034;5.342;2023-07-20T08:18:02;101439.00;;;25.60
19282;BMP180;9774;52.034;5.342;2023-07-20T08:20:30;101440.00;;;25.70
19282;BMP180;9774;52.034;5.342;2023-07-20T08:22:58;101436.00;;;25.70
19282;BMP180;9774;52.034;5.342;2023-07-20T08:25:27;101439.00;;;25.60
19282;BMP180;9774;52.034;5.342;2023-07-20T08:27:54;101443.00;;;25.60
19282;BMP180;9774;52.034;5.342;2023-07-20T08:30:22;101442.00;;;25.60
19282;BMP180;9774;52.034;5.342;2023-07-20T08:32:50;101446.00;;;25.70
19282;BMP180;9774;52.034;5.342;2023-07-20T08:35:17;101452.00;;;25.80
19282;BMP180;9774;52.034;5.342;2023-07-20T08:37:44;101450.00;;;25.90
19282;BMP180;9774;52.034;5.342;2023-07-20T08:40:13;101458.00;;;26.00
19282;BMP180;9774;52.034;5.342;2023-07-20T08:42:43;101454.00;;;26.10
19282;BMP180;9774;52.034;5.342;2023-07-20T08:45:13;101465.00;;;26.20
19282;BMP180;9774;52.034;5.342;2023-07-20T08:47:41;101456.00;;;26.30
19282;BMP180;9774;52.034;5.342;2023-07-20T08:50:10;101459.00;;;26.40
19282;BMP180;9774;52.034;5.342;2023-07-20T08:52:38;101456.00;;;26.40
19282;BMP180;9774;52.034;5.342;2023-07-20T08:55:06;101453.00;;;26.40
19282;BMP180;9774;52.034;5.342;2023-07-20T08:57:34;101457.00;;;26.30
19282;BMP180;9774;52.034;5.342;2023-07-20T09:00:05;101456.00;;;26.20
19282;BMP180;9774;52.034;5.342;2023-07-20T09:02:37;101447.00;;;26.20
19282;BMP180;9774;52.034;5.342;2023-07-20T09:05:08;101454.00;;;26.20
19282;BMP180;9774;52.034;5.342;2023-07-20T09:07:36;101448.00;;;26.20
19282;BMP180;9774;52.034;5.342;2023-07-20T09:10:04;101451.00;;;26.30
19282;BMP180;9774;52.034;5.342;2023-07-20T09:12:32;101454.00;;;26.40
19282;BMP180;9774;52.034;5.342;2023-07-20T09:15:02;101443.00;;;26.50
19282;BMP180;9774;52.034;5.342;2023-07-20T09:17:30;101450.00;;;26.50
19282;BMP180;9774;52.034;5.342;2023-07-20T09:19:58;101450.00;;;26.60
19282;BMP180;9774;52.034;5.342;2023-07-20T09:22:30;101449.00;;;26.70
19282;BMP180;9774;52.034;5.342;2023-07-20T09:24:58;101449.00;;;26.90
19282;BMP180;9774;52.034;5.342;2023-07-20T09:27:34;101460.00;;;26.90
19282;BMP180;9774;52.034;5.342;2023-07-20T09:30:02;101461.00;;;27.10
19282;BMP180;9774;52.034;5.342;2023-07-20T09:32:31;101454.00;;;27.20
19282;BMP180;9774;52.034;5.342;2023-07-20T09:35:05;101450.00;;;27.20
19282;BMP180;9774;52.034;5.342;2023-07-20T09:37:33;101451.00;;;27.30
19282;BMP180;9774;52.034;5.342;2023-07-20T09:40:01;101448.00;;;27.30
19282;BMP180;9774;52.034;5.342;2023-07-20T09:42:28;101441.00;;;27.40
19282;BMP180;9774;52.034;5.342;2023-07-20T09:44:56;101449.00;;;27.40
19282;BMP180;9774;52.034;5.342;2023-07-20T09:47:24;101448.00;;;27.50
19282;BMP180;9774;52.034;5.342;2023-07-20T09:49:59;101444.00;;;27.50
19282;BMP180;9774;52.034;5.342;2023-07-20T09:52:27;101441.00;;;27.60
19282;BMP180;9774;52.034;5.342;2023-07-20T09:54:55;101443.00;;;27.70
19282;BMP180;9774;52.034;5.342;2023-07-20T09:57:22;101439.00;;;27.80
19282;BMP180;9774;52.034;5.342;2023-07-20T09:59:50;101443.00;;;27.90
19282;BMP180;9774;52.034;5.342;2023-07-20T10:02:24;101442.00;;;27.90
19282;BMP180;9774;52.034;5.342;2023-07-20T10:04:53;101446.00;;;28.00
19282;BMP180;9774;52.034;5.342;2023-07-20T10:07:22;101448.00;;;27.90
19282;BMP180;9774;52.034;5.342;2023-07-20T10:09:53;101447.00;;;27.90
19282;BMP180;9774;52.034;5.342;2023-07-20T10:12:23;101451.00;;;27.80
19282;BMP180;9774;52.034;5.342;2023-07-20T10:14:54;101444.00;;;27.70
19282;BMP180;9774;52.034;5.342;2023-07-20T10:17:25;101436.00;;;27.70
19282;BMP180;9774;52.034;5.342;2023-07-20T10:19:57;101437.00;;;27.60
19282;BMP180;9774;52.034;5.342;2023-07-20T10:22:33;101440.00;;;27.60
19282;BMP180;9774;52.034;5.342;2023-07-20T10:25:02;101422.00;;;27.70
19282;BMP180;9774;52.034;5.342;2023-07-20T10:27:31;101431.00;;;27.70
19282;BMP180;9774;52.034;5.342;2023-07-20T10:29:59;101425.00;;;27.80
19282;BMP180;9774;52.034;5.342;2023-07-20T10:32:28;101428.00;;;27.90
19282;BMP180;9774;52.034;5.342;2023-07-20T10:34:57;101430.00;;;28.00
19282;BMP180;9774;52.034;5.342;2023-07-20T10:37:50;101438.00;;;27.80
19282;BMP180;9774;52.034;5.342;2023-07-20T10:40:31;101429.00;;;27.80
19282;BMP180;9774;52.034;5.342;2023-07-20T10:43:03;101430.00;;;27.80
19282;BMP180;9774;52.034;5.342;2023-07-20T10:45:51;101429.00;;;27.80
19282;BMP180;9774;52.034;5.342;2023-07-20T10:48:20;101427.00;;;27.80
19282;BMP180;9774;52.034;5.342;2023-07-20T10:51:09;101428.00;;;27.70
19282;BMP180;9774;52.034;5.342;2023-07-20T10:53:38;101422.00;;;27.90
19282;BMP180;9774;52.034;5.342;2023-07-20T10:56:11;101422.00;;;27.80
19282;BMP180;9774;52.034;5.342;2023-07-20T10:58:39;101425.00;;;27.90
19282;BMP180;9774;52.034;5.342;2023-07-20T11:01:07;101422.00;;;28.00
19282;BMP180;9774;52.034;5.342;2023-07-20T11:03:38;101414.00;;;28.00
19282;BMP180;9774;52.034;5.342;2023-07-20T11:06:31;101421.00;;;27.90
19282;BMP180;9774;52.034;5.342;2023-07-20T11:09:06;101415.00;;;28.00
19282;BMP180;9774;52.034;5.342;2023-07-20T11:11:37;101415.00;;;28.10
19282;BMP180;9774;52.034;5.342;2023-07-20T11:14:06;101412.00;;;28.20
19282;BMP180;9774;52.034;5.342;2023-07-20T11:16:41;101409.00;;;28.20
19282;BMP180;9774;52.034;5.342;2023-07-20T11:19:16;101411.00;;;28.20
19282;BMP180;9774;52.034;5.342;2023-07-20T11:21:44;101412.00;;;28.40
19282;BMP180;9774;52.034;5.342;2023-07-20T11:24:14;101414.00;;;28.40
19282;BMP180;9774;52.034;5.342;2023-07-20T11:26:42;101410.00;;;28.40
19282;BMP180;9774;52.034;5.342;2023-07-20T11:29:10;101406.00;;;28.50
19282;BMP180;9774;52.034;5.342;2023-07-20T11:31:38;101404.00;;;28.50
19282;BMP180;9774;52.034;5.342;2023-07-20T11:34:06;101396.00;;;28.40
19282;BMP180;9774;52.034;5.342;2023-07-20T11:36:34;101401.00;;;28.40
19282;BMP180;9774;52.034;5.342;2023-07-20T11:39:01;101404.00;;;28.40
19282;BMP180;9774;52.034;5.342;2023-07-20T11:41:32;101400.00;;;28.40
19282;BMP180;9774;52.034;5.342;2023-07-20T11:43:59;101391.00;;;28.40
19282;BMP180;9774;52.034;5.342;2023-07-20T11:46:28;101401.00;;;28.40
19282;BMP180;9774;52.034;5.342;2023-07-20T11:48:57;101395.00;;;28.40
19282;BMP180;9774;52.034;5.342;2023-07-20T11:51:26;101396.00;;;28.40
19282;BMP180;9774;52.034;5.342;2023-07-20T11:53:54;101397.00;;;28.40
19282;BMP180;9774;52.034;5.342;2023-07-20T11:56:22;101386.00;;;28.50
19282;BMP180;9774;52.034;5.342;2023-07-20T11:58:54;101387.00;;;28.40
19282;BMP180;9774;52.034;5.342;2023-07-20T12:01:22;101377.00;;;28.50
19282;BMP180;9774;52.034;5.342;2023-07-20T12:03:50;101385.00;;;28.50
19282;BMP180;9774;52.034;5.342;2023-07-20T12:06:17;101381.00;;;28.50
19282;BMP180;9774;52.034;5.342;2023-07-20T12:08:45;101376.00;;;28.60
19282;BMP180;9774;52.034;5.342;2023-07-20T12:11:12;101380.00;;;28.60
19282;BMP180;9774;52.034;5.342;2023-07-20T12:13:43;101376.00;;;28.60
19282;BMP180;9774;52.034;5.342;2023-07-20T12:16:13;101382.00;;;28.70
19282;BMP180;9774;52.034;5.342;2023-07-20T12:18:42;101378.00;;;28.70
19282;BMP180;9774;52.034;5.342;2023-07-20T12:21:09;101377.00;;;28.80
19282;BMP180;9774;52.034;5.342;2023-07-20T12:23:38;101372.00;;;28.80
19282;BMP180;9774;52.034;5.342;2023-07-20T12:26:09;101369.00;;;28.80
19282;BMP180;9774;52.034;5.342;2023-07-20T12:28:39;101368.00;;;28.90
19282;BMP180;9774;52.034;5.342;2023-07-20T12:31:08;101368.00;;;29.00
19282;BMP180;9774;52.034;5.342;2023-07-20T12:33:38;101368.00;;;29.00
19282;BMP180;9774;52.034;5.342;2023-07-20T12:36:05;101367.00;;;29.10
19282;BMP180;9774;52.034;5.342;2023-07-20T12:38:33;101361.00;;;29.10
19282;BMP180;9774;52.034;5.342;2023-07-20T12:41:01;101368.00;;;29.20
19282;BMP180;9774;52.034;5.342;2023-07-20T12:43:28;101364.00;;;29.20
19282;BMP180;9774;52.034;5.342;2023-07-20T12:45:59;101367.00;;;29.20
19282;BMP180;9774;52.034;5.342;2023-07-20T12:48:26;101362.00;;;29.30
19282;BMP180;9774;52.034;5.342;2023-07-20T12:50:54;101360.00;;;29.30
19282;BMP180;9774;52.034;5.342;2023-07-20T12:53:22;101362.00;;;29.30
19282;BMP180;9774;52.034;5.342;2023-07-20T12:55:49;101367.00;;;29.30
19282;BMP180;9774;52.034;5.342;2023-07-20T12:58:16;101374.00;;;29.30
19282;BMP180;9774;52.034;5.342;2023-07-20T13:00:44;101374.00;;;29.30
19282;BMP180;9774;52.034;5.342;2023-07-20T13:03:11;101368.00;;;29.30
19282;BMP180;9774;52.034;5.342;2023-07-20T13:05:38;101370.00;;;29.20
19282;BMP180;9774;52.034;5.342;2023-07-20T13:08:07;101360.00;;;29.10
19282;BMP180;9774;52.034;5.342;2023-07-20T13:10:34;101361.00;;;29.10
19282;BMP180;9774;52.034;5.342;2023-07-20T13:13:01;101365.00;;;29.00
19282;BMP180;9774;52.034;5.342;2023-07-20T13:15:30;101366.00;;;28.90
19282;BMP180;9774;52.034;5.342;2023-07-20T13:17:58;101359.00;;;28.80
19282;BMP180;9774;52.034;5.342;2023-07-20T13:20:26;101357.00;;;28.80
19282;BMP180;9774;52.034;5.342;2023-07-20T13:22:56;101345.00;;;28.70
19282;BMP180;9774;52.034;5.342;2023-07-20T13:25:24;101359.00;;;28.60
19282;BMP180;9774;52.034;5.342;2023-07-20T13:27:52;101357.00;;;28.60
19282;BMP180;9774;52.034;5.342;2023-07-20T13:30:19;101351.00;;;28.50
19282;BMP180;9774;52.034;5.342;2023-07-20T13:32:47;101344.00;;;28.50
19282;BMP180;9774;52.034;5.342;2023-07-20T13:35:15;101348.00;;;28.40
19282;BMP180;9774;52.034;5.342;2023-07-20T13:37:42;101342.00;;;28.40
19282;BMP180;9774;52.034;5.342;2023-07-20T13:40:10;101338.00;;;28.40
19282;BMP180;9774;52.034;5.342;2023-07-20T13:42:40;101338.00;;;28.40
19282;BMP180;9774;52.034;5.342;2023-07-20T13:45:08;101346.00;;;28.40
19282;BMP180;9774;52.034;5.342;2023-07-20T13:47:35;101330.00;;;28.40
19282;BMP180;9774;52.034;5.342;2023-07-20T13:50:03;101339.00;;;28.40
19282;BMP180;9774;52.034;5.342;2023-07-20T13:52:30;101338.00;;;28.50
19282;BMP180;9774;52.034;5.342;2023-07-20T13:54:58;101334.00;;;28.60
19282;BMP180;9774;52.034;5.342;2023-07-20T13:57:25;101328.00;;;28.60
19282;BMP180;9774;52.034;5.342;2023-07-20T13:59:53;101326.00;;;28.60
19282;BMP180;9774;52.034;5.342;2023-07-20T14:02:21;101330.00;;;28.60
19282;BMP180;9774;52.034;5.342;2023-07-20T14:04:49;101324.00;;;28.60
19282;BMP180;9774;52.034;5.342;2023-07-20T14:07:16;101326.00;;;28.60
19282;BMP180;9774;52.034;5.342;2023-07-20T14:09:43;101325.00;;;28.60
19282;BMP180;9774;52.034;5.342;2023-07-20T14:12:10;101317.00;;;28.60
19282;BMP180;9774;52.034;5.342;2023-07-20T14:14:40;101315.00;;;28.60
19282;BMP180;9774;52.034;5.342;2023-07-20T14:17:09;101319.00;;;28.60
19282;BMP180;9774;52.034;5.342;2023-07-20T14:19:38;101316.00;;;28.60